sensor_id;sensor_type;location;lat;lon;timestamp;temperature;humidity
81630;DHT22;71039;49.500;10.418;2023-08-31T00:00:42;16.60;62.50
81630;DHT22;71039;49.500;10.418;2023-08-31T00:03:08;16.60;62.50
81630;DHT22;71039;49.500;10.418;2023-08-31T00:05:37;16.60;62.50
81630;DHT22;71039;49.500;10.418;2023-08-31T00:08:02;16.60;62.70
81630;DHT22;71039;49.500;10.418;2023-08-31T00:10:28;16.60;62.70
81630;DHT22;71039;49.500;10.418;2023-08-31T00:12:53;16.60;62.70
81630;DHT22;71039;49.500;10.418;2023-08-31T00:15:19;16.50;62.70
81630;DHT22;71039;49.500;10.418;2023-08-31T00:17:44;16.50;62.80
81630;DHT22;71039;49.500;10.418;2023-08-31T00:20:10;16.50;62.90
81630;DHT22;71039;49.500;10.418;2023-08-31T00:22:35;16.50;63.00
81630;DHT22;71039;49.500;10.418;2023-08-31T00:25:01;16.50;63.00
81630;DHT22;71039;49.500;10.418;2023-08-31T00:27:27;16.50;63.10
81630;DHT22;71039;49.500;10.418;2023-08-31T00:29:52;16.50;63.10
81630;DHT22;71039;49.500;10.418;2023-08-31T00:32:18;16.50;63.10
81630;DHT22;71039;49.500;10.418;2023-08-31T00:34:44;16.50;63.20
81630;DHT22;71039;49.500;10.418;2023-08-31T00:37:10;16.50;63.20
81630;DHT22;71039;49.500;10.418;2023-08-31T00:39:35;16.50;63.20
81630;DHT22;71039;49.500;10.418;2023-08-31T00:42:01;16.50;63.30
81630;DHT22;71039;49.500;10.418;2023-08-31T00:44:26;16.50;63.30
81630;DHT22;71039;49.500;10.418;2023-08-31T00:46:52;16.50;63.30
81630;DHT22;71039;49.500;10.418;2023-08-31T00:49:18;16.50;63.40
81630;DHT22;71039;49.500;10.418;2023-08-31T00:51:45;16.50;63.40
81630;DHT22;71039;49.500;10.418;2023-08-31T00:54:11;16.50;63.50
81630;DHT22;71039;49.500;10.418;2023-08-31T00:56:36;16.50;63.50
81630;DHT22;71039;49.500;10.418;2023-08-31T00:59:02;16.50;63.50
81630;DHT22;71039;49.500;10.418;2023-08-31T01:01:34;16.50;63.60
81630;DHT22;71039;49.500;10.418;2023-08-31T01:07:22;16.40;64.20
81630;DHT22;71039;49.500;10.418;2023-08-31T01:10:07;16.50;64.30
81630;DHT22;71039;49.500;10.418;2023-08-31T01:12:42;16.40;64.00
81630;DHT22;71039;49.500;10.418;2023-08-31T01:15:13;16.40;63.80
81630;DHT22;71039;49.500;10.418;2023-08-31T01:17:44;16.40;63.90
81630;DHT22;71039;49.500;10.418;2023-08-31T01:20:12;16.40;64.00
81630;DHT22;71039;49.500;10.418;2023-08-31T01:22:55;16.40;64.00
81630;DHT22;71039;49.500;10.418;2023-08-31T01:25:22;16.40;64.50
81630;DHT22;71039;49.500;10.418;2023-08-31T01:27:48;16.40;64.00
81630;DHT22;71039;49.500;10.418;2023-08-31T01:30:14;16.40;64.00
81630;DHT22;71039;49.500;10.418;2023-08-31T01:32:44;16.40;64.00
81630;DHT22;71039;49.500;10.418;2023-08-31T01:35:10;16.40;64.00
81630;DHT22;71039;49.500;10.418;2023-08-31T01:37:50;16.40;63.90
81630;DHT22;71039;49.500;10.418;2023-08-31T01:40:34;16.40;64.20
81630;DHT22;71039;49.500;10.418;2023-08-31T01:43:01;16.40;63.90
81630;DHT22;71039;49.500;10.418;2023-08-31T01:45:28;16.40;63.80
81630;DHT22;71039;49.500;10.418;2023-08-31T01:47:55;16.40;63.80
81630;DHT22;71039;49.500;10.418;2023-08-31T01:50:21;16.40;64.40
81630;DHT22;71039;49.500;10.418;2023-08-31T01:52:46;16.30;63.60
81630;DHT22;71039;49.500;10.418;2023-08-31T01:55:18;16.30;63.60
81630;DHT22;71039;49.500;10.418;2023-08-31T01:57:44;16.30;63.60
81630;DHT22;71039;49.500;10.418;2023-08-31T02:00:17;16.20;63.60
81630;DHT22;71039;49.500;10.418;2023-08-31T02:02:43;16.20;63.50
81630;DHT22;71039;49.500;10.418;2023-08-31T02:05:09;16.10;64.10
81630;DHT22;71039;49.500;10.418;2023-08-31T02:07:34;16.10;63.10
81630;DHT22;71039;49.500;10.418;2023-08-31T02:10:01;16.10;63.00
81630;DHT22;71039;49.500;10.418;2023-08-31T02:12:27;16.00;63.00
81630;DHT22;71039;49.500;10.418;2023-08-31T02:14:52;16.00;63.00
81630;DHT22;71039;49.500;10.418;2023-08-31T02:17:19;16.00;63.00
81630;DHT22;71039;49.500;10.418;2023-08-31T02:19:44;15.90;63.00
81630;DHT22;71039;49.500;10.418;2023-08-31T02:22:10;15.80;63.00
81630;DHT22;71039;49.500;10.418;2023-08-31T02:24:35;15.80;63.00
81630;DHT22;71039;49.500;10.418;2023-08-31T02:27:01;15.70;63.00
81630;DHT22;71039;49.500;10.418;2023-08-31T02:29:26;15.60;63.10
81630;DHT22;71039;49.500;10.418;2023-08-31T02:31:52;15.60;63.10
81630;DHT22;71039;49.500;10.418;2023-08-31T02:34:17;15.60;63.10
81630;DHT22;71039;49.500;10.418;2023-08-31T02:36:43;15.50;63.20
81630;DHT22;71039;49.500;10.418;2023-08-31T02:39:09;15.50;63.20
81630;DHT22;71039;49.500;10.418;2023-08-31T02:41:36;15.40;63.30
81630;DHT22;71039;49.500;10.418;2023-08-31T02:44:03;15.40;63.30
81630;DHT22;71039;49.500;10.418;2023-08-31T02:46:29;15.30;63.40
81630;DHT22;71039;49.500;10.418;2023-08-31T02:48:55;15.30;63.50
81630;DHT22;71039;49.500;10.418;2023-08-31T02:51:20;15.20;63.60
81630;DHT22;71039;49.500;10.418;2023-08-31T02:53:46;15.20;63.60
81630;DHT22;71039;49.500;10.418;2023-08-31T02:56:11;15.10;63.70
81630;DHT22;71039;49.500;10.418;2023-08-31T02:58:37;15.00;63.70
81630;DHT22;71039;49.500;10.418;2023-08-31T03:01:10;15.00;63.80
81630;DHT22;71039;49.500;10.418;2023-08-31T03:03:37;15.00;64.00
81630;DHT22;71039;49.500;10.418;2023-08-31T03:06:02;14.90;63.90
81630;DHT22;71039;49.500;10.418;2023-08-31T03:08:28;14.90;64.00
81630;DHT22;71039;49.500;10.418;2023-08-31T03:10:54;14.90;64.10
81630;DHT22;71039;49.500;10.418;2023-08-31T03:13:20;14.80;64.10
81630;DHT22;71039;49.500;10.418;2023-08-31T03:15:46;14.80;64.20
81630;DHT22;71039;49.500;10.418;2023-08-31T03:18:11;14.70;64.30
81630;DHT22;71039;49.500;10.418;2023-08-31T03:20:37;14.70;64.30
81630;DHT22;71039;49.500;10.418;2023-08-31T03:23:02;14.70;64.40
81630;DHT22;71039;49.500;10.418;2023-08-31T03:25:28;14.60;64.40
81630;DHT22;71039;49.500;10.418;2023-08-31T03:27:54;14.60;64.40
81630;DHT22;71039;49.500;10.418;2023-08-31T03:30:19;14.60;64.50
81630;DHT22;71039;49.500;10.418;2023-08-31T03:32:45;14.50;64.50
81630;DHT22;71039;49.500;10.418;2023-08-31T03:35:10;14.50;64.60
81630;DHT22;71039;49.500;10.418;2023-08-31T03:37:36;14.50;64.70
81630;DHT22;71039;49.500;10.418;2023-08-31T03:40:02;14.40;64.70
81630;DHT22;71039;49.500;10.418;2023-08-31T03:42:28;14.40;64.80
81630;DHT22;71039;49.500;10.418;2023-08-31T03:44:54;14.40;64.80
81630;DHT22;71039;49.500;10.418;2023-08-31T03:47:19;14.40;64.90
81630;DHT22;71039;49.500;10.418;2023-08-31T03:49:45;14.30;64.90
81630;DHT22;71039;49.500;10.418;2023-08-31T03:52:10;14.30;65.00
81630;DHT22;71039;49.500;10.418;2023-08-31T03:54:36;14.30;65.00
81630;DHT22;71039;49.500;10.418;2023-08-31T03:57:02;14.20;65.00
81630;DHT22;71039;49.500;10.418;2023-08-31T03:59:27;14.20;65.10
81630;DHT22;71039;49.500;10.418;2023-08-31T04:01:53;14.20;65.10
81630;DHT22;71039;49.500;10.418;2023-08-31T04:04:18;14.20;65.20
81630;DHT22;71039;49.500;10.418;2023-08-31T04:06:46;14.10;65.20
81630;DHT22;71039;49.500;10.418;2023-08-31T04:09:11;14.10;65.20
81630;DHT22;71039;49.500;10.418;2023-08-31T04:11:37;14.10;65.30
81630;DHT22;71039;49.500;10.418;2023-08-31T04:14:02;14.10;65.30
81630;DHT22;71039;49.500;10.418;2023-08-31T04:16:28;14.10;65.30
81630;DHT22;71039;49.500;10.418;2023-08-31T04:18:55;14.00;65.50
81630;DHT22;71039;49.500;10.418;2023-08-31T04:21:20;14.00;65.80
81630;DHT22;71039;49.500;10.418;2023-08-31T04:23:46;14.00;66.10
81630;DHT22;71039;49.500;10.418;2023-08-31T04:26:12;14.00;66.20
81630;DHT22;71039;49.500;10.418;2023-08-31T04:28:39;14.00;66.10
81630;DHT22;71039;49.500;10.418;2023-08-31T04:31:05;14.00;66.10
81630;DHT22;71039;49.500;10.418;2023-08-31T04:33:30;14.00;66.00
81630;DHT22;71039;49.500;10.418;2023-08-31T04:35:56;14.00;65.90
81630;DHT22;71039;49.500;10.418;2023-08-31T04:38:21;14.00;65.90
81630;DHT22;71039;49.500;10.418;2023-08-31T04:40:47;13.90;66.00
81630;DHT22;71039;49.500;10.418;2023-08-31T04:43:13;13.90;66.00
81630;DHT22;71039;49.500;10.418;2023-08-31T04:45:39;13.90;66.10
81630;DHT22;71039;49.500;10.418;2023-08-31T04:48:04;13.90;66.20
81630;DHT22;71039;49.500;10.418;2023-08-31T04:50:30;13.90;66.20
81630;DHT22;71039;49.500;10.418;2023-08-31T04:52:55;13.90;66.20
81630;DHT22;71039;49.500;10.418;2023-08-31T04:55:21;13.90;66.20
81630;DHT22;71039;49.500;10.418;2023-08-31T04:57:47;13.90;66.20
81630;DHT22;71039;49.500;10.418;2023-08-31T05:00:13;13.90;66.40
81630;DHT22;71039;49.500;10.418;2023-08-31T05:02:39;13.90;66.60
81630;DHT22;71039;49.500;10.418;2023-08-31T05:05:04;13.90;66.90
81630;DHT22;71039;49.500;10.418;2023-08-31T05:07:30;13.90;67.10
81630;DHT22;71039;49.500;10.418;2023-08-31T05:09:56;13.90;67.20
81630;DHT22;71039;49.500;10.418;2023-08-31T05:12:21;13.90;67.30
81630;DHT22;71039;49.500;10.418;2023-08-31T05:14:47;13.90;67.30
81630;DHT22;71039;49.500;10.418;2023-08-31T05:17:12;14.00;67.30
81630;DHT22;71039;49.500;10.418;2023-08-31T05:19:38;14.00;67.30
81630;DHT22;71039;49.500;10.418;2023-08-31T05:22:05;14.00;67.30
81630;DHT22;71039;49.500;10.418;2023-08-31T05:24:31;14.00;67.30
81630;DHT22;71039;49.500;10.418;2023-08-31T05:26:56;14.10;67.40
81630;DHT22;71039;49.500;10.418;2023-08-31T05:29:22;14.10;67.50
81630;DHT22;71039;49.500;10.418;2023-08-31T05:31:47;14.10;67.40
81630;DHT22;71039;49.500;10.418;2023-08-31T05:34:16;14.10;67.50
81630;DHT22;71039;49.500;10.418;2023-08-31T05:36:42;14.20;67.50
81630;DHT22;71039;49.500;10.418;2023-08-31T05:39:08;14.20;67.50
81630;DHT22;71039;49.500;10.418;2023-08-31T05:41:34;14.20;67.60
81630;DHT22;71039;49.500;10.418;2023-08-31T05:43:59;14.30;67.60
81630;DHT22;71039;49.500;10.418;2023-08-31T05:46:25;14.30;67.70
81630;DHT22;71039;49.500;10.418;2023-08-31T05:48:50;14.30;67.80
81630;DHT22;71039;49.500;10.418;2023-08-31T05:51:16;14.40;67.90
81630;DHT22;71039;49.500;10.418;2023-08-31T05:53:41;14.40;67.90
81630;DHT22;71039;49.500;10.418;2023-08-31T05:56:07;14.50;68.00
81630;DHT22;71039;49.500;10.418;2023-08-31T05:58:36;14.50;68.00
81630;DHT22;71039;49.500;10.418;2023-08-31T06:01:03;14.60;68.20
81630;DHT22;71039;49.500;10.418;2023-08-31T06:03:29;14.60;68.10
81630;DHT22;71039;49.500;10.418;2023-08-31T06:05:56;14.70;68.20
81630;DHT22;71039;49.500;10.418;2023-08-31T06:08:21;14.70;68.20
81630;DHT22;71039;49.500;10.418;2023-08-31T06:10:47;14.80;68.30
81630;DHT22;71039;49.500;10.418;2023-08-31T06:13:13;14.90;68.40
81630;DHT22;71039;49.500;10.418;2023-08-31T06:15:38;14.90;68.40
81630;DHT22;71039;49.500;10.418;2023-08-31T06:18:04;15.00;68.50
81630;DHT22;71039;49.500;10.418;2023-08-31T06:20:30;15.00;68.50
81630;DHT22;71039;49.500;10.418;2023-08-31T06:22:55;15.10;68.50
81630;DHT22;71039;49.500;10.418;2023-08-31T06:25:21;15.20;68.70
81630;DHT22;71039;49.500;10.418;2023-08-31T06:27:46;15.30;68.70
81630;DHT22;71039;49.500;10.418;2023-08-31T06:30:12;15.40;69.30
81630;DHT22;71039;49.500;10.418;2023-08-31T06:32:38;15.50;72.10
81630;DHT22;71039;49.500;10.418;2023-08-31T06:35:03;15.80;76.50
81630;DHT22;71039;49.500;10.418;2023-08-31T06:37:29;16.00;78.40
81630;DHT22;71039;49.500;10.418;2023-08-31T06:39:55;16.50;79.10
81630;DHT22;71039;49.500;10.418;2023-08-31T06:42:20;17.00;79.70
81630;DHT22;71039;49.500;10.418;2023-08-31T06:44:46;17.50;80.00
81630;DHT22;71039;49.500;10.418;2023-08-31T06:47:11;18.10;79.90
81630;DHT22;71039;49.500;10.418;2023-08-31T06:49:37;18.80;79.10
81630;DHT22;71039;49.500;10.418;2023-08-31T06:52:02;19.50;77.70
81630;DHT22;71039;49.500;10.418;2023-08-31T06:54:28;20.10;76.70
81630;DHT22;71039;49.500;10.418;2023-08-31T06:56:53;20.80;75.40
81630;DHT22;71039;49.500;10.418;2023-08-31T06:59:19;21.50;74.20
81630;DHT22;71039;49.500;10.418;2023-08-31T07:01:45;22.10;72.90
81630;DHT22;71039;49.500;10.418;2023-08-31T07:04:10;22.70;71.30
81630;DHT22;71039;49.500;10.418;2023-08-31T07:06:36;23.30;70.00
81630;DHT22;71039;49.500;10.418;2023-08-31T07:09:01;24.00;67.50
81630;DHT22;71039;49.500;10.418;2023-08-31T07:11:27;24.40;65.50
81630;DHT22;71039;49.500;10.418;2023-08-31T07:13:53;25.00;64.40
81630;DHT22;71039;49.500;10.418;2023-08-31T07:16:18;25.40;63.90
81630;DHT22;71039;49.500;10.418;2023-08-31T07:18:44;25.80;62.90
81630;DHT22;71039;49.500;10.418;2023-08-31T07:21:09;26.20;61.80
81630;DHT22;71039;49.500;10.418;2023-08-31T07:23:35;26.60;60.90
81630;DHT22;71039;49.500;10.418;2023-08-31T07:26:00;27.00;59.90
81630;DHT22;71039;49.500;10.418;2023-08-31T07:28:26;27.40;59.20
81630;DHT22;71039;49.500;10.418;2023-08-31T07:31:04;27.80;58.00
81630;DHT22;71039;49.500;10.418;2023-08-31T07:33:34;28.10;55.20
81630;DHT22;71039;49.500;10.418;2023-08-31T07:36:00;28.50;55.40
81630;DHT22;71039;49.500;10.418;2023-08-31T07:38:26;28.80;55.00
81630;DHT22;71039;49.500;10.418;2023-08-31T07:40:52;29.10;54.50
81630;DHT22;71039;49.500;10.418;2023-08-31T07:43:17;29.40;54.00
81630;DHT22;71039;49.500;10.418;2023-08-31T07:45:43;29.70;53.10
81630;DHT22;71039;49.500;10.418;2023-08-31T07:48:08;30.00;52.30
81630;DHT22;71039;49.500;10.418;2023-08-31T07:50:34;30.30;51.00
81630;DHT22;71039;49.500;10.418;2023-08-31T07:53:00;30.50;49.70
81630;DHT22;71039;49.500;10.418;2023-08-31T07:55:25;30.60;49.40
81630;DHT22;71039;49.500;10.418;2023-08-31T07:57:51;30.70;47.70
81630;DHT22;71039;49.500;10.418;2023-08-31T08:00:17;30.70;46.60
81630;DHT22;71039;49.500;10.418;2023-08-31T08:02:42;30.70;47.00
81630;DHT22;71039;49.500;10.418;2023-08-31T08:05:08;30.70;47.50
81630;DHT22;71039;49.500;10.418;2023-08-31T08:07:33;30.70;47.50
81630;DHT22;71039;49.500;10.418;2023-08-31T08:09:59;30.80;47.50
81630;DHT22;71039;49.500;10.418;2023-08-31T08:12:24;30.90;47.50
81630;DHT22;71039;49.500;10.418;2023-08-31T08:14:50;31.00;47.00
81630;DHT22;71039;49.500;10.418;2023-08-31T08:17:16;31.10;46.40
81630;DHT22;71039;49.500;10.418;2023-08-31T08:19:42;31.30;45.90
81630;DHT22;71039;49.500;10.418;2023-08-31T08:22:07;31.40;45.80
81630;DHT22;71039;49.500;10.418;2023-08-31T08:24:33;31.50;45.70
81630;DHT22;71039;49.500;10.418;2023-08-31T08:26:58;31.70;44.40
81630;DHT22;71039;49.500;10.418;2023-08-31T08:29:24;31.70;44.10
81630;DHT22;71039;49.500;10.418;2023-08-31T08:31:50;31.80;44.00
81630;DHT22;71039;49.500;10.418;2023-08-31T08:34:15;31.90;43.60
81630;DHT22;71039;49.500;10.418;2023-08-31T08:36:41;31.90;43.20
81630;DHT22;71039;49.500;10.418;2023-08-31T08:39:07;32.00;43.10
81630;DHT22;71039;49.500;10.418;2023-08-31T08:41:33;32.00;42.60
81630;DHT22;71039;49.500;10.418;2023-08-31T08:44:02;32.00;42.20
81630;DHT22;71039;49.500;10.418;2023-08-31T08:46:28;32.00;41.30
81630;DHT22;71039;49.500;10.418;2023-08-31T08:48:54;32.00;41.00
81630;DHT22;71039;49.500;10.418;2023-08-31T08:51:21;32.00;40.50
81630;DHT22;71039;49.500;10.418;2023-08-31T08:53:47;31.90;40.60
81630;DHT22;71039;49.500;10.418;2023-08-31T08:56:16;31.80;39.70
81630;DHT22;71039;49.500;10.418;2023-08-31T08:58:42;31.60;38.80
81630;DHT22;71039;49.500;10.418;2023-08-31T09:01:07;31.30;38.30
81630;DHT22;71039;49.500;10.418;2023-08-31T09:03:34;31.00;37.60
81630;DHT22;71039;49.500;10.418;2023-08-31T09:05:59;30.60;38.20
81630;DHT22;71039;49.500;10.418;2023-08-31T09:08:26;30.30;38.80
81630;DHT22;71039;49.500;10.418;2023-08-31T09:10:52;30.00;39.40
81630;DHT22;71039;49.500;10.418;2023-08-31T09:13:20;29.70;39.70
81630;DHT22;71039;49.500;10.418;2023-08-31T09:15:47;29.50;40.20
81630;DHT22;71039;49.500;10.418;2023-08-31T09:20:48;29.30;40.50
81630;DHT22;71039;49.500;10.418;2023-08-31T09:23:14;29.30;40.30
81630;DHT22;71039;49.500;10.418;2023-08-31T09:25:48;29.30;40.90
81630;DHT22;71039;49.500;10.418;2023-08-31T09:28:15;29.30;39.90
81630;DHT22;71039;49.500;10.418;2023-08-31T09:30:41;29.20;39.80
81630;DHT22;71039;49.500;10.418;2023-08-31T09:33:08;29.20;39.40
81630;DHT22;71039;49.500;10.418;2023-08-31T09:35:45;29.10;38.80
81630;DHT22;71039;49.500;10.418;2023-08-31T09:38:11;28.90;38.30
81630;DHT22;71039;49.500;10.418;2023-08-31T09:40:37;28.70;38.40
81630;DHT22;71039;49.500;10.418;2023-08-31T09:43:03;28.50;38.20
81630;DHT22;71039;49.500;10.418;2023-08-31T09:45:30;28.30;38.10
81630;DHT22;71039;49.500;10.418;2023-08-31T09:47:58;28.00;38.20
81630;DHT22;71039;49.500;10.418;2023-08-31T09:50:24;27.70;38.20
81630;DHT22;71039;49.500;10.418;2023-08-31T09:52:54;27.40;38.40
81630;DHT22;71039;49.500;10.418;2023-08-31T09:55:21;27.10;38.30
81630;DHT22;71039;49.500;10.418;2023-08-31T09:57:48;26.80;38.60
81630;DHT22;71039;49.500;10.418;2023-08-31T10:00:14;26.50;38.80
81630;DHT22;71039;49.500;10.418;2023-08-31T10:02:39;26.20;38.90
81630;DHT22;71039;49.500;10.418;2023-08-31T10:05:06;26.00;39.50
81630;DHT22;71039;49.500;10.418;2023-08-31T10:07:31;25.80;39.80
81630;DHT22;71039;49.500;10.418;2023-08-31T10:09:57;25.70;39.90
81630;DHT22;71039;49.500;10.418;2023-08-31T10:12:23;25.60;40.00
81630;DHT22;71039;49.500;10.418;2023-08-31T10:14:49;25.40;40.10
81630;DHT22;71039;49.500;10.418;2023-08-31T10:17:15;25.30;40.20
81630;DHT22;71039;49.500;10.418;2023-08-31T10:19:41;25.20;40.10
81630;DHT22;71039;49.500;10.418;2023-08-31T10:22:07;25.00;40.00
81630;DHT22;71039;49.500;10.418;2023-08-31T10:24:59;24.80;40.10
81630;DHT22;71039;49.500;10.418;2023-08-31T10:27:24;24.70;40.00
81630;DHT22;71039;49.500;10.418;2023-08-31T10:29:50;24.50;40.40
81630;DHT22;71039;49.500;10.418;2023-08-31T10:32:19;24.40;40.50
81630;DHT22;71039;49.500;10.418;2023-08-31T10:35:04;24.20;40.50
81630;DHT22;71039;49.500;10.418;2023-08-31T10:37:30;24.00;40.20
81630;DHT22;71039;49.500;10.418;2023-08-31T10:40:11;23.90;40.70
81630;DHT22;71039;49.500;10.418;2023-08-31T10:42:44;23.70;40.60
81630;DHT22;71039;49.500;10.418;2023-08-31T10:45:10;23.60;40.80
81630;DHT22;71039;49.500;10.418;2023-08-31T10:47:40;23.40;40.90
81630;DHT22;71039;49.500;10.418;2023-08-31T10:50:22;23.30;41.10
81630;DHT22;71039;49.500;10.418;2023-08-31T10:52:48;23.10;41.20
81630;DHT22;71039;49.500;10.418;2023-08-31T10:55:13;23.00;41.60
81630;DHT22;71039;49.500;10.418;2023-08-31T10:57:40;22.90;41.60
81630;DHT22;71039;49.500;10.418;2023-08-31T11:00:07;22.70;41.50
81630;DHT22;71039;49.500;10.418;2023-08-31T11:02:43;22.60;41.60
81630;DHT22;71039;49.500;10.418;2023-08-31T11:05:18;22.50;41.70
81630;DHT22;71039;49.500;10.418;2023-08-31T11:07:44;22.30;41.90
81630;DHT22;71039;49.500;10.418;2023-08-31T11:10:14;22.10;42.30
81630;DHT22;71039;49.500;10.418;2023-08-31T11:12:42;22.00;42.50
81630;DHT22;71039;49.500;10.418;2023-08-31T11:15:08;21.90;42.90
81630;DHT22;71039;49.500;10.418;2023-08-31T11:17:34;21.80;43.10
81630;DHT22;71039;49.500;10.418;2023-08-31T11:20:01;21.80;43.40
81630;DHT22;71039;49.500;10.418;2023-08-31T11:22:27;21.70;43.70
81630;DHT22;71039;49.500;10.418;2023-08-31T11:24:53;21.70;43.90
81630;DHT22;71039;49.500;10.418;2023-08-31T11:27:19;21.70;44.00
81630;DHT22;71039;49.500;10.418;2023-08-31T11:29:45;21.70;44.10
81630;DHT22;71039;49.500;10.418;2023-08-31T11:32:10;21.80;44.50
81630;DHT22;71039;49.500;10.418;2023-08-31T11:34:44;21.90;45.00
81630;DHT22;71039;49.500;10.418;2023-08-31T11:37:13;21.90;45.20
81630;DHT22;71039;49.500;10.418;2023-08-31T11:39:39;22.10;45.20
81630;DHT22;71039;49.500;10.418;2023-08-31T11:42:04;22.20;44.90
81630;DHT22;71039;49.500;10.418;2023-08-31T11:44:30;22.30;44.70
81630;DHT22;71039;49.500;10.418;2023-08-31T11:46:56;22.50;44.60
81630;DHT22;71039;49.500;10.418;2023-08-31T11:49:22;22.50;44.20
81630;DHT22;71039;49.500;10.418;2023-08-31T11:51:48;22.60;43.80
81630;DHT22;71039;49.500;10.418;2023-08-31T11:54:16;22.60;43.50
81630;DHT22;71039;49.500;10.418;2023-08-31T11:56:43;22.60;43.50
81630;DHT22;71039;49.500;10.418;2023-08-31T11:59:12;22.60;43.50
81630;DHT22;71039;49.500;10.418;2023-08-31T12:01:39;22.50;43.50
81630;DHT22;71039;49.500;10.418;2023-08-31T12:04:10;22.50;43.60
81630;DHT22;71039;49.500;10.418;2023-08-31T12:06:36;22.50;43.50
81630;DHT22;71039;49.500;10.418;2023-08-31T12:09:02;22.50;43.80
81630;DHT22;71039;49.500;10.418;2023-08-31T12:11:27;22.50;44.00
81630;DHT22;71039;49.500;10.418;2023-08-31T12:13:53;22.50;44.00
81630;DHT22;71039;49.500;10.418;2023-08-31T12:16:18;22.50;44.10
81630;DHT22;71039;49.500;10.418;2023-08-31T12:18:44;22.50;44.20
81630;DHT22;71039;49.500;10.418;2023-08-31T12:21:09;22.50;44.10
81630;DHT22;71039;49.500;10.418;2023-08-31T12:23:35;22.60;44.30
81630;DHT22;71039;49.500;10.418;2023-08-31T12:26:01;22.60;44.70
81630;DHT22;71039;49.500;10.418;2023-08-31T12:28:26;22.70;44.90
81630;DHT22;71039;49.500;10.418;2023-08-31T12:30:53;22.80;45.10
81630;DHT22;71039;49.500;10.418;2023-08-31T12:33:20;22.90;44.70
81630;DHT22;71039;49.500;10.418;2023-08-31T12:35:46;23.00;44.40
81630;DHT22;71039;49.500;10.418;2023-08-31T12:38:12;23.10;44.30
81630;DHT22;71039;49.500;10.418;2023-08-31T12:40:38;23.10;44.50
81630;DHT22;71039;49.500;10.418;2023-08-31T12:43:07;23.30;44.60
81630;DHT22;71039;49.500;10.418;2023-08-31T12:45:33;23.40;44.20
81630;DHT22;71039;49.500;10.418;2023-08-31T12:47:59;23.40;43.60
81630;DHT22;71039;49.500;10.418;2023-08-31T12:50:25;23.50;43.40
81630;DHT22;71039;49.500;10.418;2023-08-31T12:52:50;23.50;43.20
81630;DHT22;71039;49.500;10.418;2023-08-31T12:55:16;23.50;43.00
81630;DHT22;71039;49.500;10.418;2023-08-31T12:57:43;23.50;43.10
81630;DHT22;71039;49.500;10.418;2023-08-31T13:00:09;23.50;42.80
81630;DHT22;71039;49.500;10.418;2023-08-31T13:02:35;23.40;42.50
81630;DHT22;71039;49.500;10.418;2023-08-31T13:05:01;23.40;42.30
81630;DHT22;71039;49.500;10.418;2023-08-31T13:07:26;23.40;42.20
81630;DHT22;71039;49.500;10.418;2023-08-31T13:09:52;23.30;42.20
81630;DHT22;71039;49.500;10.418;2023-08-31T13:12:17;23.30;42.20
81630;DHT22;71039;49.500;10.418;2023-08-31T13:14:44;23.20;42.20
81630;DHT22;71039;49.500;10.418;2023-08-31T13:17:09;23.20;42.30
81630;DHT22;71039;49.500;10.418;2023-08-31T13:19:35;23.20;42.50
81630;DHT22;71039;49.500;10.418;2023-08-31T13:22:00;23.20;42.60
81630;DHT22;71039;49.500;10.418;2023-08-31T13:24:26;23.20;42.50
81630;DHT22;71039;49.500;10.418;2023-08-31T13:26:51;23.20;42.30
81630;DHT22;71039;49.500;10.418;2023-08-31T13:29:17;23.20;42.20
81630;DHT22;71039;49.500;10.418;2023-08-31T13:31:42;23.20;42.10
81630;DHT22;71039;49.500;10.418;2023-08-31T13:34:08;23.20;42.10
81630;DHT22;71039;49.500;10.418;2023-08-31T13:36:34;23.20;42.00
81630;DHT22;71039;49.500;10.418;2023-08-31T13:38:59;23.30;42.00
81630;DHT22;71039;49.500;10.418;2023-08-31T13:41:25;23.30;42.10
81630;DHT22;71039;49.500;10.418;2023-08-31T13:43:50;23.30;42.30
81630;DHT22;71039;49.500;10.418;2023-08-31T13:46:16;23.30;42.20
81630;DHT22;71039;49.500;10.418;2023-08-31T13:48:41;23.40;42.00
81630;DHT22;71039;49.500;10.418;2023-08-31T13:51:07;23.40;42.10
81630;DHT22;71039;49.500;10.418;2023-08-31T13:53:33;23.40;41.90
81630;DHT22;71039;49.500;10.418;2023-08-31T13:55:58;23.40;41.80
81630;DHT22;71039;49.500;10.418;2023-08-31T13:58:24;23.40;41.60
81630;DHT22;71039;49.500;10.418;2023-08-31T14:00:49;23.40;41.70
81630;DHT22;71039;49.500;10.418;2023-08-31T14:03:15;23.50;41.60
81630;DHT22;71039;49.500;10.418;2023-08-31T14:05:49;23.50;41.50
81630;DHT22;71039;49.500;10.418;2023-08-31T14:08:15;23.50;40.80
81630;DHT22;71039;49.500;10.418;2023-08-31T14:10:41;23.50;41.10
81630;DHT22;71039;49.500;10.418;2023-08-31T14:13:07;23.50;41.00
81630;DHT22;71039;49.500;10.418;2023-08-31T14:15:32;23.40;41.10
81630;DHT22;71039;49.500;10.418;2023-08-31T14:17:58;23.40;41.10
81630;DHT22;71039;49.500;10.418;2023-08-31T14:20:24;23.40;41.20
81630;DHT22;71039;49.500;10.418;2023-08-31T14:22:49;23.40;41.40
81630;DHT22;71039;49.500;10.418;2023-08-31T14:25:15;23.40;41.40
81630;DHT22;71039;49.500;10.418;2023-08-31T14:27:41;23.40;41.60
81630;DHT22;71039;49.500;10.418;2023-08-31T14:30:07;23.40;41.60
81630;DHT22;71039;49.500;10.418;2023-08-31T14:32:33;23.40;41.50
81630;DHT22;71039;49.500;10.418;2023-08-31T14:34:58;23.40;41.40
81630;DHT22;71039;49.500;10.418;2023-08-31T14:37:24;23.30;41.80
81630;DHT22;71039;49.500;10.418;2023-08-31T14:39:49;23.30;42.00
81630;DHT22;71039;49.500;10.418;2023-08-31T14:42:15;23.40;42.10
81630;DHT22;71039;49.500;10.418;2023-08-31T14:44:40;23.40;42.10
81630;DHT22;71039;49.500;10.418;2023-08-31T14:47:06;23.40;42.10
81630;DHT22;71039;49.500;10.418;2023-08-31T14:49:32;23.50;42.20
81630;DHT22;71039;49.500;10.418;2023-08-31T14:51:57;23.60;42.00
81630;DHT22;71039;49.500;10.418;2023-08-31T14:54:23;23.60;42.00
81630;DHT22;71039;49.500;10.418;2023-08-31T14:56:48;23.60;41.70
81630;DHT22;71039;49.500;10.418;2023-08-31T14:59:14;23.60;41.70
81630;DHT22;71039;49.500;10.418;2023-08-31T15:01:39;23.60;41.60
81630;DHT22;71039;49.500;10.418;2023-08-31T15:04:05;23.60;41.50
81630;DHT22;71039;49.500;10.418;2023-08-31T15:06:31;23.60;41.50
81630;DHT22;71039;49.500;10.418;2023-08-31T15:08:56;23.60;41.40
81630;DHT22;71039;49.500;10.418;2023-08-31T15:11:22;23.60;41.50
81630;DHT22;71039;49.500;10.418;2023-08-31T15:13:47;23.60;41.50
81630;DHT22;71039;49.500;10.418;2023-08-31T15:16:13;23.60;41.40